sensor_id;sensor_type;location;lat;lon;timestamp;temperature;humidity
59311;DHT22;45078;51.654;21.250;2024-01-07T00:01:01;-2.90;99.90
59311;DHT22;45078;51.654;21.250;2024-01-07T00:03:27;-2.90;99.90
59311;DHT22;45078;51.654;21.250;2024-01-07T00:05:53;-2.90;99.90
59311;DHT22;45078;51.654;21.250;2024-01-07T00:08:18;-2.90;99.90
59311;DHT22;45078;51.654;21.250;2024-01-07T00:10:44;-2.90;99.90
59311;DHT22;45078;51.654;21.250;2024-01-07T00:13:09;-3.00;99.90
59311;DHT22;45078;51.654;21.250;2024-01-07T00:15:35;-3.00;99.90
59311;DHT22;45078;51.654;21.250;2024-01-07T00:18:00;-3.00;99.90
59311;DHT22;45078;51.654;21.250;2024-01-07T00:20:26;-3.00;99.90
59311;DHT22;45078;51.654;21.250;2024-01-07T00:22:52;-3.00;99.90
59311;DHT22;45078;51.654;21.250;2024-01-07T00:25:17;-3.00;99.90
59311;DHT22;45078;51.654;21.250;2024-01-07T00:27:43;-3.00;99.90
59311;DHT22;45078;51.654;21.250;2024-01-07T00:30:10;-3.10;99.90
59311;DHT22;45078;51.654;21.250;2024-01-07T00:32:35;-3.10;99.90
59311;DHT22;45078;51.654;21.250;2024-01-07T00:35:01;-3.10;99.90
59311;DHT22;45078;51.654;21.250;2024-01-07T00:37:27;-3.20;99.90
59311;DHT22;45078;51.654;21.250;2024-01-07T00:39:52;-3.20;99.90
59311;DHT22;45078;51.654;21.250;2024-01-07T00:42:18;-3.10;99.90
59311;DHT22;45078;51.654;21.250;2024-01-07T00:44:43;-3.10;99.90
59311;DHT22;45078;51.654;21.250;2024-01-07T00:47:09;-3.10;99.90
59311;DHT22;45078;51.654;21.250;2024-01-07T00:49:34;-3.10;99.90
59311;DHT22;45078;51.654;21.250;2024-01-07T00:52:00;-3.10;99.90
59311;DHT22;45078;51.654;21.250;2024-01-07T00:54:25;-3.10;99.90
59311;DHT22;45078;51.654;21.250;2024-01-07T00:56:51;-3.10;99.90
59311;DHT22;45078;51.654;21.250;2024-01-07T00:59:17;-3.10;99.90
59311;DHT22;45078;51.654;21.250;2024-01-07T01:01:42;-3.10;99.90
59311;DHT22;45078;51.654;21.250;2024-01-07T01:04:08;-3.10;99.90
59311;DHT22;45078;51.654;21.250;2024-01-07T01:06:33;-3.10;99.90
59311;DHT22;45078;51.654;21.250;2024-01-07T01:08:59;-3.20;99.90
59311;DHT22;45078;51.654;21.250;2024-01-07T01:11:24;-3.20;99.90
59311;DHT22;45078;51.654;21.250;2024-01-07T01:13:50;-3.20;99.90
59311;DHT22;45078;51.654;21.250;2024-01-07T01:16:15;-3.20;99.90
59311;DHT22;45078;51.654;21.250;2024-01-07T01:18:41;-3.20;99.90
59311;DHT22;45078;51.654;21.250;2024-01-07T01:21:06;-3.20;99.90
59311;DHT22;45078;51.654;21.250;2024-01-07T01:23:33;-3.20;99.90
59311;DHT22;45078;51.654;21.250;2024-01-07T01:25:58;-3.30;99.90
59311;DHT22;45078;51.654;21.250;2024-01-07T01:28:24;-3.30;99.90
59311;DHT22;45078;51.654;21.250;2024-01-07T01:30:49;-3.30;99.90
59311;DHT22;45078;51.654;21.250;2024-01-07T01:33:15;-3.30;99.90
59311;DHT22;45078;51.654;21.250;2024-01-07T01:35:41;-3.30;99.90
59311;DHT22;45078;51.654;21.250;2024-01-07T01:38:06;-3.30;99.90
59311;DHT22;45078;51.654;21.250;2024-01-07T01:40:32;-3.30;99.90
59311;DHT22;45078;51.654;21.250;2024-01-07T01:42:57;-3.30;99.90
59311;DHT22;45078;51.654;21.250;2024-01-07T01:45:23;-3.30;99.90
59311;DHT22;45078;51.654;21.250;2024-01-07T01:47:51;-3.40;99.90
59311;DHT22;45078;51.654;21.250;2024-01-07T01:50:17;-3.40;99.90
59311;DHT22;45078;51.654;21.250;2024-01-07T01:52:44;-3.40;99.90
59311;DHT22;45078;51.654;21.250;2024-01-07T01:55:10;-3.40;99.90
59311;DHT22;45078;51.654;21.250;2024-01-07T01:57:36;-3.40;99.90
59311;DHT22;45078;51.654;21.250;2024-01-07T02:00:04;-3.40;99.90
59311;DHT22;45078;51.654;21.250;2024-01-07T02:02:31;-3.40;99.90
59311;DHT22;45078;51.654;21.250;2024-01-07T02:05:08;-3.40;99.90
59311;DHT22;45078;51.654;21.250;2024-01-07T02:07:33;-3.50;99.90
59311;DHT22;45078;51.654;21.250;2024-01-07T02:09:59;-3.50;99.90
59311;DHT22;45078;51.654;21.250;2024-01-07T02:12:25;-3.40;99.90
59311;DHT22;45078;51.654;21.250;2024-01-07T02:14:51;-3.40;99.90
59311;DHT22;45078;51.654;21.250;2024-01-07T02:17:19;-3.40;99.90
59311;DHT22;45078;51.654;21.250;2024-01-07T02:19:45;-3.50;99.90
59311;DHT22;45078;51.654;21.250;2024-01-07T02:22:11;-3.50;99.90
59311;DHT22;45078;51.654;21.250;2024-01-07T02:24:36;-3.40;99.90
59311;DHT22;45078;51.654;21.250;2024-01-07T02:27:02;-3.40;99.90
59311;DHT22;45078;51.654;21.250;2024-01-07T02:29:28;-3.50;99.90
59311;DHT22;45078;51.654;21.250;2024-01-07T02:31:54;-3.50;99.90
59311;DHT22;45078;51.654;21.250;2024-01-07T02:34:20;-3.50;99.90
59311;DHT22;45078;51.654;21.250;2024-01-07T02:36:45;-3.60;99.90
59311;DHT22;45078;51.654;21.250;2024-01-07T02:39:11;-3.50;99.90
59311;DHT22;45078;51.654;21.250;2024-01-07T02:41:37;-3.60;99.90
59311;DHT22;45078;51.654;21.250;2024-01-07T02:44:02;-3.60;99.90
59311;DHT22;45078;51.654;21.250;2024-01-07T02:46:28;-3.60;99.90
59311;DHT22;45078;51.654;21.250;2024-01-07T02:48:53;-3.70;99.90
59311;DHT22;45078;51.654;21.250;2024-01-07T02:51:19;-3.70;99.90
59311;DHT22;45078;51.654;21.250;2024-01-07T02:53:44;-3.60;99.90
59311;DHT22;45078;51.654;21.250;2024-01-07T02:56:10;-3.70;99.90
59311;DHT22;45078;51.654;21.250;2024-01-07T02:58:35;-3.60;99.90
59311;DHT22;45078;51.654;21.250;2024-01-07T03:01:01;-3.70;99.90
59311;DHT22;45078;51.654;21.250;2024-01-07T03:03:27;-3.70;99.90
59311;DHT22;45078;51.654;21.250;2024-01-07T03:05:52;-3.70;99.90
59311;DHT22;45078;51.654;21.250;2024-01-07T03:08:18;-3.70;99.90
59311;DHT22;45078;51.654;21.250;2024-01-07T03:10:43;-3.70;99.90
59311;DHT22;45078;51.654;21.250;2024-01-07T03:13:09;-3.70;99.90
59311;DHT22;45078;51.654;21.250;2024-01-07T03:15:34;-3.70;99.90
59311;DHT22;45078;51.654;21.250;2024-01-07T03:18:00;-3.70;99.90
59311;DHT22;45078;51.654;21.250;2024-01-07T03:20:25;-3.70;99.90
59311;DHT22;45078;51.654;21.250;2024-01-07T03:22:51;-3.70;99.90
59311;DHT22;45078;51.654;21.250;2024-01-07T03:25:17;-3.80;99.90
59311;DHT22;45078;51.654;21.250;2024-01-07T03:27:42;-3.80;99.90
59311;DHT22;45078;51.654;21.250;2024-01-07T03:30:08;-3.80;99.90
59311;DHT22;45078;51.654;21.250;2024-01-07T03:32:35;-3.80;99.90
59311;DHT22;45078;51.654;21.250;2024-01-07T03:35:01;-3.80;99.90
59311;DHT22;45078;51.654;21.250;2024-01-07T03:37:26;-3.80;99.90
59311;DHT22;45078;51.654;21.250;2024-01-07T03:39:52;-3.80;99.90
59311;DHT22;45078;51.654;21.250;2024-01-07T03:42:17;-3.80;99.90
59311;DHT22;45078;51.654;21.250;2024-01-07T03:44:43;-3.80;99.90
59311;DHT22;45078;51.654;21.250;2024-01-07T03:47:09;-3.90;99.90
59311;DHT22;45078;51.654;21.250;2024-01-07T03:49:36;-3.90;99.90
59311;DHT22;45078;51.654;21.250;2024-01-07T03:52:03;-3.80;99.90
59311;DHT22;45078;51.654;21.250;2024-01-07T03:54:29;-3.80;99.90
59311;DHT22;45078;51.654;21.250;2024-01-07T03:56:54;-3.80;99.90
59311;DHT22;45078;51.654;21.250;2024-01-07T03:59:20;-3.90;99.90
59311;DHT22;45078;51.654;21.250;2024-01-07T04:01:47;-3.90;99.90
59311;DHT22;45078;51.654;21.250;2024-01-07T04:04:13;-3.90;99.90
59311;DHT22;45078;51.654;21.250;2024-01-07T04:06:39;-4.00;99.90
59311;DHT22;45078;51.654;21.250;2024-01-07T04:09:04;-3.90;99.90
59311;DHT22;45078;51.654;21.250;2024-01-07T04:11:30;-3.90;99.90
59311;DHT22;45078;51.654;21.250;2024-01-07T04:13:55;-4.00;99.90
59311;DHT22;45078;51.654;21.250;2024-01-07T04:16:21;-4.00;99.90
59311;DHT22;45078;51.654;21.250;2024-01-07T04:18:47;-4.00;99.90
59311;DHT22;45078;51.654;21.250;2024-01-07T04:21:12;-4.00;99.90
59311;DHT22;45078;51.654;21.250;2024-01-07T04:23:39;-4.00;99.90
59311;DHT22;45078;51.654;21.250;2024-01-07T04:26:09;-4.00;99.90
59311;DHT22;45078;51.654;21.250;2024-01-07T04:28:34;-4.00;99.90
59311;DHT22;45078;51.654;21.250;2024-01-07T04:31:00;-4.00;99.90
59311;DHT22;45078;51.654;21.250;2024-01-07T04:33:26;-4.00;99.90
59311;DHT22;45078;51.654;21.250;2024-01-07T04:35:51;-4.00;99.90
59311;DHT22;45078;51.654;21.250;2024-01-07T04:38:17;-4.00;99.90
59311;DHT22;45078;51.654;21.250;2024-01-07T04:40:42;-4.00;99.90
59311;DHT22;45078;51.654;21.250;2024-01-07T04:43:08;-4.00;99.90
59311;DHT22;45078;51.654;21.250;2024-01-07T04:45:34;-4.00;99.90
59311;DHT22;45078;51.654;21.250;2024-01-07T04:48:00;-4.00;99.90
59311;DHT22;45078;51.654;21.250;2024-01-07T04:50:25;-4.00;99.90
59311;DHT22;45078;51.654;21.250;2024-01-07T04:52:51;-4.00;99.90
59311;DHT22;45078;51.654;21.250;2024-01-07T04:55:16;-4.00;99.90
59311;DHT22;45078;51.654;21.250;2024-01-07T04:57:42;-4.00;99.90
59311;DHT22;45078;51.654;21.250;2024-01-07T05:00:08;-4.10;99.90
59311;DHT22;45078;51.654;21.250;2024-01-07T05:02:33;-4.10;99.90
59311;DHT22;45078;51.654;21.250;2024-01-07T05:04:59;-4.10;99.90
59311;DHT22;45078;51.654;21.250;2024-01-07T05:07:24;-4.10;99.90
59311;DHT22;45078;51.654;21.250;2024-01-07T05:09:50;-4.10;99.90
59311;DHT22;45078;51.654;21.250;2024-01-07T05:12:15;-4.20;99.90
59311;DHT22;45078;51.654;21.250;2024-01-07T05:14:41;-4.20;99.90
59311;DHT22;45078;51.654;21.250;2024-01-07T05:17:08;-4.10;99.90
59311;DHT22;45078;51.654;21.250;2024-01-07T05:19:33;-4.20;99.90
59311;DHT22;45078;51.654;21.250;2024-01-07T05:21:59;-4.20;99.90
59311;DHT22;45078;51.654;21.250;2024-01-07T05:24:25;-4.20;99.90
59311;DHT22;45078;51.654;21.250;2024-01-07T05:26:51;-4.20;99.90
59311;DHT22;45078;51.654;21.250;2024-01-07T05:29:16;-4.20;99.90
59311;DHT22;45078;51.654;21.250;2024-01-07T05:31:42;-4.20;99.90
59311;DHT22;45078;51.654;21.250;2024-01-07T05:34:08;-4.30;99.90
59311;DHT22;45078;51.654;21.250;2024-01-07T05:36:34;-4.30;99.90
59311;DHT22;45078;51.654;21.250;2024-01-07T05:38:59;-4.30;99.90
59311;DHT22;45078;51.654;21.250;2024-01-07T05:41:25;-4.30;99.90
59311;DHT22;45078;51.654;21.250;2024-01-07T05:43:51;-4.20;99.90
59311;DHT22;45078;51.654;21.250;2024-01-07T05:46:16;-4.30;99.90
59311;DHT22;45078;51.654;21.250;2024-01-07T05:48:46;-4.20;99.90
59311;DHT22;45078;51.654;21.250;2024-01-07T05:51:12;-4.20;99.90
59311;DHT22;45078;51.654;21.250;2024-01-07T05:53:39;-4.20;99.90
59311;DHT22;45078;51.654;21.250;2024-01-07T05:56:05;-4.30;99.90
59311;DHT22;45078;51.654;21.250;2024-01-07T05:58:31;-4.40;99.90
59311;DHT22;45078;51.654;21.250;2024-01-07T06:00:56;-4.30;99.90
59311;DHT22;45078;51.654;21.250;2024-01-07T06:03:22;-4.40;99.90
59311;DHT22;45078;51.654;21.250;2024-01-07T06:05:48;-4.30;99.90
59311;DHT22;45078;51.654;21.250;2024-01-07T06:08:13;-4.40;99.90
59311;DHT22;45078;51.654;21.250;2024-01-07T06:10:41;-4.40;99.90
59311;DHT22;45078;51.654;21.250;2024-01-07T06:13:07;-4.30;99.90
59311;DHT22;45078;51.654;21.250;2024-01-07T06:15:33;-4.30;99.90
59311;DHT22;45078;51.654;21.250;2024-01-07T06:17:58;-4.40;99.90
59311;DHT22;45078;51.654;21.250;2024-01-07T06:20:24;-4.40;99.90
59311;DHT22;45078;51.654;21.250;2024-01-07T06:22:50;-4.40;99.90
59311;DHT22;45078;51.654;21.250;2024-01-07T06:25:15;-4.50;99.90
59311;DHT22;45078;51.654;21.250;2024-01-07T06:27:41;-4.50;99.90
59311;DHT22;45078;51.654;21.250;2024-01-07T06:30:07;-4.50;99.90
59311;DHT22;45078;51.654;21.250;2024-01-07T06:32:34;-4.40;99.90
59311;DHT22;45078;51.654;21.250;2024-01-07T06:34:59;-4.40;99.90
59311;DHT22;45078;51.654;21.250;2024-01-07T06:37:25;-4.30;99.90
59311;DHT22;45078;51.654;21.250;2024-01-07T06:39:51;-4.40;99.90
59311;DHT22;45078;51.654;21.250;2024-01-07T06:42:17;-4.40;99.90
59311;DHT22;45078;51.654;21.250;2024-01-07T06:44:42;-4.40;99.90
59311;DHT22;45078;51.654;21.250;2024-01-07T06:47:08;-4.50;99.90
59311;DHT22;45078;51.654;21.250;2024-01-07T06:49:33;-4.50;99.90
59311;DHT22;45078;51.654;21.250;2024-01-07T06:51:59;-4.50;99.90
59311;DHT22;45078;51.654;21.250;2024-01-07T06:54:25;-4.50;99.90
59311;DHT22;45078;51.654;21.250;2024-01-07T06:56:51;-4.60;99.90
59311;DHT22;45078;51.654;21.250;2024-01-07T06:59:16;-4.50;99.90
59311;DHT22;45078;51.654;21.250;2024-01-07T07:01:42;-4.50;99.90
59311;DHT22;45078;51.654;21.250;2024-01-07T07:04:07;-4.50;99.90
59311;DHT22;45078;51.654;21.250;2024-01-07T07:06:33;-4.50;99.90
59311;DHT22;45078;51.654;21.250;2024-01-07T07:09:00;-4.50;99.90
59311;DHT22;45078;51.654;21.250;2024-01-07T07:11:25;-4.50;99.90
59311;DHT22;45078;51.654;21.250;2024-01-07T07:13:51;-4.40;99.90
59311;DHT22;45078;51.654;21.250;2024-01-07T07:16:17;-4.50;99.90
59311;DHT22;45078;51.654;21.250;2024-01-07T07:18:42;-4.50;99.90
59311;DHT22;45078;51.654;21.250;2024-01-07T07:21:08;-4.50;99.90
59311;DHT22;45078;51.654;21.250;2024-01-07T07:23:33;-4.60;99.90
59311;DHT22;45078;51.654;21.250;2024-01-07T07:25:59;-4.60;99.90
59311;DHT22;45078;51.654;21.250;2024-01-07T07:28:24;-4.60;99.90
59311;DHT22;45078;51.654;21.250;2024-01-07T07:30:51;-4.50;99.90
59311;DHT22;45078;51.654;21.250;2024-01-07T07:33:17;-4.60;99.90
59311;DHT22;45078;51.654;21.250;2024-01-07T07:35:43;-4.50;99.90
59311;DHT22;45078;51.654;21.250;2024-01-07T07:38:08;-4.50;99.90
59311;DHT22;45078;51.654;21.250;2024-01-07T07:40:34;-4.60;99.90
59311;DHT22;45078;51.654;21.250;2024-01-07T07:42:59;-4.60;99.90
59311;DHT22;45078;51.654;21.250;2024-01-07T07:45:25;-4.50;99.90
59311;DHT22;45078;51.654;21.250;2024-01-07T07:47:50;-4.60;99.90
59311;DHT22;45078;51.654;21.250;2024-01-07T07:50:16;-4.60;99.90
59311;DHT22;45078;51.654;21.250;2024-01-07T07:52:42;-4.60;99.90
59311;DHT22;45078;51.654;21.250;2024-01-07T07:55:09;-4.60;99.90
59311;DHT22;45078;51.654;21.250;2024-01-07T07:57:35;-4.60;99.90
59311;DHT22;45078;51.654;21.250;2024-01-07T08:00:01;-4.60;99.90
59311;DHT22;45078;51.654;21.250;2024-01-07T08:02:27;-4.60;99.90
59311;DHT22;45078;51.654;21.250;2024-01-07T08:04:53;-4.60;99.90
59311;DHT22;45078;51.654;21.250;2024-01-07T08:07:18;-4.60;99.90
59311;DHT22;45078;51.654;21.250;2024-01-07T08:09:44;-4.60;99.90
59311;DHT22;45078;51.654;21.250;2024-01-07T08:12:09;-4.60;99.90
59311;DHT22;45078;51.654;21.250;2024-01-07T08:14:37;-4.50;99.90
59311;DHT22;45078;51.654;21.250;2024-01-07T08:17:06;-4.60;99.90
59311;DHT22;45078;51.654;21.250;2024-01-07T08:19:32;-4.70;99.90
59311;DHT22;45078;51.654;21.250;2024-01-07T08:21:58;-4.60;99.90
59311;DHT22;45078;51.654;21.250;2024-01-07T08:24:23;-4.40;99.90
59311;DHT22;45078;51.654;21.250;2024-01-07T08:26:49;-4.40;99.90
59311;DHT22;45078;51.654;21.250;2024-01-07T08:29:15;-4.40;99.90
59311;DHT22;45078;51.654;21.250;2024-01-07T08:31:40;-4.40;99.90
59311;DHT22;45078;51.654;21.250;2024-01-07T08:34:07;-4.40;99.90
59311;DHT22;45078;51.654;21.250;2024-01-07T08:36:33;-4.30;99.90
59311;DHT22;45078;51.654;21.250;2024-01-07T08:38:58;-4.40;99.90
59311;DHT22;45078;51.654;21.250;2024-01-07T08:41:24;-4.30;99.90
59311;DHT22;45078;51.654;21.250;2024-01-07T08:43:49;-4.30;99.90
59311;DHT22;45078;51.654;21.250;2024-01-07T08:46:15;-4.30;99.90
59311;DHT22;45078;51.654;21.250;2024-01-07T08:48:41;-4.30;99.90
59311;DHT22;45078;51.654;21.250;2024-01-07T08:51:06;-4.20;99.90
59311;DHT22;45078;51.654;21.250;2024-01-07T08:53:32;-4.20;99.90
59311;DHT22;45078;51.654;21.250;2024-01-07T08:55:57;-4.10;99.90
59311;DHT22;45078;51.654;21.250;2024-01-07T08:58:23;-4.10;99.90
59311;DHT22;45078;51.654;21.250;2024-01-07T09:00:49;-4.00;99.90
59311;DHT22;45078;51.654;21.250;2024-01-07T09:03:15;-3.90;99.90
59311;DHT22;45078;51.654;21.250;2024-01-07T09:05:40;-3.90;99.90
59311;DHT22;45078;51.654;21.250;2024-01-07T09:08:06;-3.80;99.90
59311;DHT22;45078;51.654;21.250;2024-01-07T09:10:32;-3.90;99.90
59311;DHT22;45078;51.654;21.250;2024-01-07T09:12:59;-3.90;99.90
59311;DHT22;45078;51.654;21.250;2024-01-07T09:15:25;-3.90;99.90
59311;DHT22;45078;51.654;21.250;2024-01-07T09:17:51;-3.90;99.90
59311;DHT22;45078;51.654;21.250;2024-01-07T09:20:17;-4.00;99.90
59311;DHT22;45078;51.654;21.250;2024-01-07T09:22:42;-4.00;99.90
59311;DHT22;45078;51.654;21.250;2024-01-07T09:25:09;-4.20;99.90
59311;DHT22;45078;51.654;21.250;2024-01-07T09:27:34;-4.30;99.90
59311;DHT22;45078;51.654;21.250;2024-01-07T09:30:00;-4.30;99.90
59311;DHT22;45078;51.654;21.250;2024-01-07T09:32:26;-4.40;99.90
59311;DHT22;45078;51.654;21.250;2024-01-07T09:34:52;-4.40;99.90
59311;DHT22;45078;51.654;21.250;2024-01-07T09:37:18;-4.50;99.90
59311;DHT22;45078;51.654;21.250;2024-01-07T09:39:44;-4.50;99.90
59311;DHT22;45078;51.654;21.250;2024-01-07T09:42:14;-4.50;99.90
59311;DHT22;45078;51.654;21.250;2024-01-07T09:44:43;-4.40;99.90
59311;DHT22;45078;51.654;21.250;2024-01-07T09:47:13;-4.40;99.90
59311;DHT22;45078;51.654;21.250;2024-01-07T09:49:40;-4.50;99.90
59311;DHT22;45078;51.654;21.250;2024-01-07T09:52:08;-4.40;99.90
59311;DHT22;45078;51.654;21.250;2024-01-07T09:54:36;-4.40;99.90
59311;DHT22;45078;51.654;21.250;2024-01-07T09:57:04;-4.40;99.90
59311;DHT22;45078;51.654;21.250;2024-01-07T09:59:34;-4.30;99.90
59311;DHT22;45078;51.654;21.250;2024-01-07T10:02:00;-4.40;99.90
59311;DHT22;45078;51.654;21.250;2024-01-07T10:04:27;-4.30;99.90
59311;DHT22;45078;51.654;21.250;2024-01-07T10:06:53;-4.30;99.90
59311;DHT22;45078;51.654;21.250;2024-01-07T10:09:23;-4.40;99.90
59311;DHT22;45078;51.654;21.250;2024-01-07T10:11:49;-4.30;99.90
59311;DHT22;45078;51.654;21.250;2024-01-07T10:14:15;-4.30;99.90
59311;DHT22;45078;51.654;21.250;2024-01-07T10:16:41;-4.30;99.90
59311;DHT22;45078;51.654;21.250;2024-01-07T10:19:07;-4.40;99.90
59311;DHT22;45078;51.654;21.250;2024-01-07T10:21:34;-4.30;99.90
59311;DHT22;45078;51.654;21.250;2024-01-07T10:24:12;-4.40;99.90
59311;DHT22;45078;51.654;21.250;2024-01-07T10:26:39;-4.40;99.90
59311;DHT22;45078;51.654;21.250;2024-01-07T10:29:05;-4.40;99.90
59311;DHT22;45078;51.654;21.250;2024-01-07T10:31:34;-4.50;99.90
59311;DHT22;45078;51.654;21.250;2024-01-07T10:34:00;-4.40;99.90
59311;DHT22;45078;51.654;21.250;2024-01-07T10:36:26;-4.40;99.90
59311;DHT22;45078;51.654;21.250;2024-01-07T10:38:52;-4.40;99.90
59311;DHT22;45078;51.654;21.250;2024-01-07T10:41:21;-4.30;99.90
59311;DHT22;45078;51.654;21.250;2024-01-07T10:43:48;-4.30;99.90
59311;DHT22;45078;51.654;21.250;2024-01-07T10:46:14;-4.40;99.90
59311;DHT22;45078;51.654;21.250;2024-01-07T10:48:59;-4.50;99.90
59311;DHT22;45078;51.654;21.250;2024-01-07T10:51:28;-4.40;99.90
59311;DHT22;45078;51.654;21.250;2024-01-07T10:53:56;-4.40;99.90
59311;DHT22;45078;51.654;21.250;2024-01-07T10:56:25;-4.40;99.90
59311;DHT22;45078;51.654;21.250;2024-01-07T10:58:54;-4.40;99.90
59311;DHT22;45078;51.654;21.250;2024-01-07T11:01:20;-4.40;99.90
59311;DHT22;45078;51.654;21.250;2024-01-07T11:06:31;-4.30;99.90
59311;DHT22;45078;51.654;21.250;2024-01-07T11:11:58;-4.40;99.90
59311;DHT22;45078;51.654;21.250;2024-01-07T11:14:42;-4.30;99.90
59311;DHT22;45078;51.654;21.250;2024-01-07T11:17:11;-4.20;99.90
59311;DHT22;45078;51.654;21.250;2024-01-07T11:19:48;-4.30;99.90
59311;DHT22;45078;51.654;21.250;2024-01-07T11:22:27;-4.20;99.90
59311;DHT22;45078;51.654;21.250;2024-01-07T11:24:57;-4.30;99.90
59311;DHT22;45078;51.654;21.250;2024-01-07T11:27:28;-4.30;99.90
59311;DHT22;45078;51.654;21.250;2024-01-07T11:30:03;-4.30;99.90
59311;DHT22;45078;51.654;21.250;2024-01-07T11:32:33;-4.40;99.90
59311;DHT22;45078;51.654;21.250;2024-01-07T11:35:00;-4.30;99.90
59311;DHT22;45078;51.654;21.250;2024-01-07T11:37:26;-4.30;99.90
59311;DHT22;45078;51.654;21.250;2024-01-07T11:39:56;-4.30;99.90
59311;DHT22;45078;51.654;21.250;2024-01-07T11:42:22;-4.30;99.90
59311;DHT22;45078;51.654;21.250;2024-01-07T11:44:54;-4.40;99.90
59311;DHT22;45078;51.654;21.250;2024-01-07T11:47:21;-4.40;99.90
59311;DHT22;45078;51.654;21.250;2024-01-07T11:49:47;-4.40;99.90
59311;DHT22;45078;51.654;21.250;2024-01-07T11:52:14;-4.40;99.90
59311;DHT22;45078;51.654;21.250;2024-01-07T11:54:41;-4.40;99.90
59311;DHT22;45078;51.654;21.250;2024-01-07T11:57:07;-4.40;99.90
59311;DHT22;45078;51.654;21.250;2024-01-07T11:59:33;-4.30;99.90
59311;DHT22;45078;51.654;21.250;2024-01-07T12:02:00;-4.30;99.90
59311;DHT22;45078;51.654;21.250;2024-01-07T12:04:25;-4.30;99.90
59311;DHT22;45078;51.654;21.250;2024-01-07T12:06:51;-4.40;99.90
59311;DHT22;45078;51.654;21.250;2024-01-07T12:09:17;-4.50;99.90
59311;DHT22;45078;51.654;21.250;2024-01-07T12:11:43;-4.40;99.90
59311;DHT22;45078;51.654;21.250;2024-01-07T12:14:09;-4.40;99.90
59311;DHT22;45078;51.654;21.250;2024-01-07T12:16:36;-4.40;99.90
59311;DHT22;45078;51.654;21.250;2024-01-07T12:19:01;-4.40;99.90
59311;DHT22;45078;51.654;21.250;2024-01-07T12:21:27;-4.40;99.90
59311;DHT22;45078;51.654;21.250;2024-01-07T12:23:55;-4.40;99.90
59311;DHT22;45078;51.654;21.250;2024-01-07T12:26:26;-4.40;99.90
59311;DHT22;45078;51.654;21.250;2024-01-07T12:28:59;-4.40;99.90
59311;DHT22;45078;51.654;21.250;2024-01-07T12:31:29;-4.40;99.90
59311;DHT22;45078;51.654;21.250;2024-01-07T12:33:56;-4.50;99.90
59311;DHT22;45078;51.654;21.250;2024-01-07T12:36:22;-4.50;99.90
59311;DHT22;45078;51.654;21.250;2024-01-07T12:38:48;-4.40;99.90
59311;DHT22;45078;51.654;21.250;2024-01-07T12:41:15;-4.50;99.90
59311;DHT22;45078;51.654;21.250;2024-01-07T12:43:40;-4.40;99.90
59311;DHT22;45078;51.654;21.250;2024-01-07T12:46:06;-4.40;99.90
59311;DHT22;45078;51.654;21.250;2024-01-07T12:48:32;-4.40;99.90
59311;DHT22;45078;51.654;21.250;2024-01-07T12:50:58;-4.40;99.90
59311;DHT22;45078;51.654;21.250;2024-01-07T12:53:24;-4.40;99.90
59311;DHT22;45078;51.654;21.250;2024-01-07T12:55:50;-4.40;99.90
59311;DHT22;45078;51.654;21.250;2024-01-07T12:58:15;-4.50;99.90
59311;DHT22;45078;51.654;21.250;2024-01-07T13:00:42;-4.40;99.90
59311;DHT22;45078;51.654;21.250;2024-01-07T13:03:08;-4.50;99.90
59311;DHT22;45078;51.654;21.250;2024-01-07T13:05:39;-4.50;99.90
59311;DHT22;45078;51.654;21.250;2024-01-07T13:08:05;-4.60;99.90
59311;DHT22;45078;51.654;21.250;2024-01-07T13:10:30;-4.60;99.90
59311;DHT22;45078;51.654;21.250;2024-01-07T13:12:56;-4.50;99.90
59311;DHT22;45078;51.654;21.250;2024-01-07T13:15:21;-4.50;99.90
59311;DHT22;45078;51.654;21.250;2024-01-07T13:17:48;-4.60;99.90
59311;DHT22;45078;51.654;21.250;2024-01-07T13:20:13;-4.70;99.90
59311;DHT22;45078;51.654;21.250;2024-01-07T13:22:39;-4.70;99.90
59311;DHT22;45078;51.654;21.250;2024-01-07T13:25:06;-4.60;99.90
59311;DHT22;45078;51.654;21.250;2024-01-07T13:27:32;-4.60;99.90
59311;DHT22;45078;51.654;21.250;2024-01-07T13:29:59;-4.70;99.90
59311;DHT22;45078;51.654;21.250;2024-01-07T13:32:24;-4.60;99.90
59311;DHT22;45078;51.654;21.250;2024-01-07T13:34:50;-4.60;99.90
59311;DHT22;45078;51.654;21.250;2024-01-07T13:37:15;-4.60;99.90
59311;DHT22;45078;51.654;21.250;2024-01-07T13:39:41;-4.60;99.90
59311;DHT22;45078;51.654;21.250;2024-01-07T13:42:07;-4.60;99.90
59311;DHT22;45078;51.654;21.250;2024-01-07T13:44:32;-4.60;99.90
59311;DHT22;45078;51.654;21.250;2024-01-07T13:47:00;-4.70;99.90
59311;DHT22;45078;51.654;21.250;2024-01-07T13:49:26;-4.70;99.90
59311;DHT22;45078;51.654;21.250;2024-01-07T13:51:52;-4.70;99.90
59311;DHT22;45078;51.654;21.250;2024-01-07T13:54:18;-4.70;99.90
59311;DHT22;45078;51.654;21.250;2024-01-07T13:56:44;-4.80;99.90
59311;DHT22;45078;51.654;21.250;2024-01-07T13:59:10;-4.80;99.90
59311;DHT22;45078;51.654;21.250;2024-01-07T14:01:36;-4.80;99.90
59311;DHT22;45078;51.654;21.250;2024-01-07T14:04:03;-4.80;99.90
59311;DHT22;45078;51.654;21.250;2024-01-07T14:06:29;-4.90;99.90
59311;DHT22;45078;51.654;21.250;2024-01-07T14:08:54;-4.90;99.90
59311;DHT22;45078;51.654;21.250;2024-01-07T14:11:20;-5.00;99.90
59311;DHT22;45078;51.654;21.250;2024-01-07T14:13:46;-5.00;99.90
59311;DHT22;45078;51.654;21.250;2024-01-07T14:16:12;-5.00;99.90
59311;DHT22;45078;51.654;21.250;2024-01-07T14:18:38;-5.00;99.90
59311;DHT22;45078;51.654;21.250;2024-01-07T14:21:04;-5.00;99.90
59311;DHT22;45078;51.654;21.250;2024-01-07T14:23:30;-5.00;99.90
59311;DHT22;45078;51.654;21.250;2024-01-07T14:25:57;-5.00;99.90
59311;DHT22;45078;51.654;21.250;2024-01-07T14:28:22;-5.10;99.90
59311;DHT22;45078;51.654;21.250;2024-01-07T14:30:48;-5.10;99.90
59311;DHT22;45078;51.654;21.250;2024-01-07T14:33:14;-5.00;99.90
59311;DHT22;45078;51.654;21.250;2024-01-07T14:35:40;-5.00;99.90
59311;DHT22;45078;51.654;21.250;2024-01-07T14:38:05;-5.10;99.90
59311;DHT22;45078;51.654;21.250;2024-01-07T14:40:31;-5.10;99.90
59311;DHT22;45078;51.654;21.250;2024-01-07T14:42:56;-5.10;99.90
59311;DHT22;45078;51.654;21.250;2024-01-07T14:45:24;-5.20;99.90
59311;DHT22;45078;51.654;21.250;2024-01-07T14:47:51;-5.30;99.90
59311;DHT22;45078;51.654;21.250;2024-01-07T14:50:17;-5.30;99.90
59311;DHT22;45078;51.654;21.250;2024-01-07T14:52:43;-5.40;99.90
59311;DHT22;45078;51.654;21.250;2024-01-07T14:55:08;-5.30;99.90
59311;DHT22;45078;51.654;21.250;2024-01-07T14:57:34;-5.30;99.90
59311;DHT22;45078;51.654;21.250;2024-01-07T15:00:00;-5.30;99.90
59311;DHT22;45078;51.654;21.250;2024-01-07T15:02:25;-5.30;99.90
59311;DHT22;45078;51.654;21.250;2024-01-07T15:04:51;-5.40;99.90
59311;DHT22;45078;51.654;21.250;2024-01-07T15:07:20;-5.50;99.90
59311;DHT22;45078;51.654;21.250;2024-01-07T15:09:45;-5.50;99.90
59311;DHT22;45078;51.654;21.250;2024-01-07T15:12:11;-5.50;99.90
59311;DHT22;45078;51.654;21.250;2024-01-07T15:14:36;-5.50;99.90